Time;durP1;ratioP1;P1;durP2;ratioP2;P2;SDS_P1;SDS_P2;PMS_P1;PMS_P2;Temp;Humidity;BMP_temperature;BMP_pressure;BME280_temperature;BME280_humidity;BME280_pressure;Samples;Min_cycle;Max_cycle;Signal;HPM_P1;HPM_P2
2022/11/29 00:00:59;;;;;;;55.28;25.05;;;3.50;99.90;;;;;;5055228;28;20044;-69
2022/11/29 00:03:25;;;;;;;49.20;24.33;;;3.50;99.90;;;;;;5054765;28;20021;-69
2022/11/29 00:05:52;;;;;;;46.53;25.15;;;3.50;99.90;;;;;;5055355;28;20017;-68
2022/11/29 00:08:18;;;;;;;52.60;25.20;;;3.50;99.90;;;;;;5054825;28;20039;-68
2022/11/29 00:10:44;;;;;;;52.00;24.27;;;3.50;99.90;;;;;;5055032;28;20385;-69
2022/11/29 00:13:10;;;;;;;53.63;25.10;;;3.50;99.90;;;;;;5055439;28;20021;-68
2022/11/29 00:15:36;;;;;;;49.38;24.45;;;3.50;99.90;;;;;;5054474;28;20025;-69
2022/11/29 00:18:03;;;;;;;51.95;24.27;;;3.50;99.90;;;;;;5055138;28;20103;-68
2022/11/29 00:20:29;;;;;;;48.83;23.27;;;3.50;99.90;;;;;;5054495;28;20033;-69
2022/11/29 00:22:55;;;;;;;52.38;24.95;;;3.50;99.90;;;;;;5055285;28;20033;-70
2022/11/29 00:25:20;;;;;;;49.80;25.23;;;3.50;99.90;;;;;;5054722;28;20040;-68
2022/11/29 00:27:46;;;;;;;50.45;25.00;;;3.50;99.90;;;;;;5055222;28;20025;-69
2022/11/29 00:30:12;;;;;;;51.35;25.50;;;3.50;99.90;;;;;;5055172;28;20136;-71
2022/11/29 00:32:38;;;;;;;52.25;24.65;;;3.40;99.90;;;;;;5054446;28;20031;-69
2022/11/29 00:35:04;;;;;;;53.90;24.35;;;3.40;99.90;;;;;;5054746;28;20048;-70
2022/11/29 00:37:29;;;;;;;56.75;25.60;;;3.40;99.90;;;;;;5054416;28;20036;-69
2022/11/29 00:39:55;;;;;;;50.08;24.95;;;3.40;99.90;;;;;;5054850;28;20033;-70
2022/11/29 00:42:21;;;;;;;56.80;24.80;;;3.40;99.90;;;;;;5054194;28;20052;-70
2022/11/29 00:44:46;;;;;;;55.08;24.75;;;3.40;99.90;;;;;;5055029;28;20067;-69
2022/11/29 00:47:12;;;;;;;51.10;25.17;;;3.40;99.90;;;;;;5054434;28;20412;-69
2022/11/29 00:49:38;;;;;;;48.78;23.95;;;3.40;99.90;;;;;;5054377;28;20489;-70
2022/11/29 00:52:04;;;;;;;50.47;24.70;;;3.40;99.90;;;;;;5054607;28;20028;-69
2022/11/29 00:54:29;;;;;;;55.40;25.35;;;3.40;99.90;;;;;;5053909;28;20032;-70
2022/11/29 00:56:55;;;;;;;51.20;23.88;;;3.40;99.90;;;;;;5054503;28;20029;-69
2022/11/29 00:59:20;;;;;;;53.10;25.08;;;3.40;99.90;;;;;;5053570;28;20035;-70
2022/11/29 01:01:46;;;;;;;48.28;23.13;;;3.40;99.90;;;;;;5054386;28;20083;-69
2022/11/29 01:04:12;;;;;;;46.55;23.05;;;3.30;99.90;;;;;;5054330;28;20445;-69
2022/11/29 01:06:37;;;;;;;48.25;23.05;;;3.40;99.90;;;;;;5053376;28;20470;-69
2022/11/29 01:09:04;;;;;;;50.10;23.98;;;3.40;99.90;;;;;;5053855;28;20040;-69
2022/11/29 01:11:29;;;;;;;49.15;24.33;;;3.40;99.90;;;;;;5053636;28;20139;-70
2022/11/29 01:13:57;;;;;;;47.10;24.02;;;3.40;99.90;;;;;;5054284;28;20150;-69
2022/11/29 01:16:24;;;;;;;49.75;22.48;;;3.40;99.90;;;;;;5053553;28;20029;-69
2022/11/29 01:18:50;;;;;;;46.28;22.50;;;3.40;99.90;;;;;;5053566;28;20036;-69
2022/11/29 01:21:19;;;;;;;53.05;24.60;;;3.40;99.90;;;;;;5053954;28;20465;-68
2022/11/29 01:23:46;;;;;;;49.00;22.80;;;3.30;99.90;;;;;;5053461;28;20481;-69
2022/11/29 01:26:14;;;;;;;44.78;22.02;;;3.30;99.90;;;;;;5053874;28;20141;-68
2022/11/29 01:28:40;;;;;;;47.70;23.05;;;3.30;99.90;;;;;;5053277;28;20028;-68
2022/11/29 01:31:07;;;;;;;45.47;22.75;;;3.30;99.90;;;;;;5053331;28;20512;-69
2022/11/29 01:33:34;;;;;;;46.13;22.77;;;3.30;99.90;;;;;;5053492;28;20488;-69
2022/11/29 01:36:00;;;;;;;45.50;23.30;;;3.30;99.90;;;;;;5053687;28;20097;-70
2022/11/29 01:38:25;;;;;;;47.50;22.77;;;3.30;99.90;;;;;;5053482;28;20032;-70
2022/11/29 01:41:07;;;;;;;47.17;23.15;;;3.30;99.90;;;;;;5052486;28;20052;-70
2022/11/29 01:43:51;;;;;;;49.72;23.23;;;3.30;99.90;;;;;;5053176;28;20488;-69
2022/11/29 01:46:17;;;;;;;45.03;21.35;;;3.20;99.90;;;;;;5053172;28;20423;-69
2022/11/29 01:48:42;;;;;;;49.85;23.60;;;3.30;99.90;;;;;;5052772;28;20100;-70
2022/11/29 01:51:08;;;;;;;50.35;21.92;;;3.30;99.90;;;;;;5053198;28;20027;-70
2022/11/29 01:53:34;;;;;;;44.63;21.42;;;3.30;99.90;;;;;;5052897;28;20025;-70
2022/11/29 01:56:04;;;;;;;45.03;22.33;;;3.30;99.90;;;;;;5053139;28;20029;-69
2022/11/29 01:58:31;;;;;;;42.35;22.13;;;3.20;99.90;;;;;;5052229;28;20032;-69
2022/11/29 02:00:59;;;;;;;41.20;20.77;;;3.20;99.90;;;;;;5053217;28;20056;-69
2022/11/29 02:03:25;;;;;;;45.95;21.73;;;3.20;99.90;;;;;;5052419;28;20025;-70
2022/11/29 02:05:52;;;;;;;41.30;20.95;;;3.20;99.90;;;;;;5053171;28;20112;-69
2022/11/29 02:08:30;;;;;;;44.78;22.95;;;3.20;99.90;;;;;;5053141;28;20051;-69
2022/11/29 02:11:18;;;;;;;40.53;20.60;;;3.20;99.90;;;;;;5052819;28;20104;-69
2022/11/29 02:14:14;;;;;;;40.78;21.27;;;3.10;99.90;;;;;;5052322;28;20031;-69
2022/11/29 02:16:45;;;;;;;44.70;22.30;;;3.10;99.90;;;;;;5052376;28;20065;-70
2022/11/29 02:19:19;;;;;;;;;;;3.20;99.90;;;;;;5053310;28;20035;-68
2022/11/29 02:21:53;;;;;;;44.42;24.00;;;3.20;99.90;;;;;;5052246;28;19915;-69
2022/11/29 02:24:27;;;;;;;46.60;21.92;;;3.10;99.90;;;;;;5052581;28;20531;-69
2022/11/29 02:27:24;;;;;;;46.65;23.08;;;3.10;99.90;;;;;;5052714;28;20116;-69
2022/11/29 02:30:14;;;;;;;43.75;21.25;;;3.10;99.90;;;;;;5052350;28;20103;-69
2022/11/29 02:33:04;;;;;;;44.28;24.00;;;3.10;99.90;;;;;;5052302;28;20122;-69
2022/11/29 02:35:56;;;;;;;44.03;22.23;;;3.10;99.90;;;;;;5051402;28;20064;-69
2022/11/29 02:39:07;;;;;;;41.80;21.50;;;3.00;99.90;;;;;;5052887;28;20112;-71
2022/11/29 02:41:43;;;;;;;42.05;21.67;;;3.00;99.90;;;;;;5028668;28;20044;-69
2022/11/29 02:44:21;;;;;;;44.05;22.63;;;3.00;99.90;;;;;;5052232;28;20025;-69
2022/11/29 02:47:24;;;;;;;46.05;22.83;;;3.00;99.90;;;;;;5051770;28;20056;-69
2022/11/29 02:49:56;;;;;;;45.88;23.30;;;3.00;99.90;;;;;;5052178;28;20029;-69
2022/11/29 02:52:29;;;;;;;43.25;23.23;;;3.00;99.90;;;;;;5052255;28;20128;-68
2022/11/29 02:55:08;;;;;;;41.00;22.40;;;3.00;99.90;;;;;;5052266;28;20017;-69
2022/11/29 02:57:56;;;;;;;47.67;22.73;;;2.90;99.90;;;;;;5051414;28;20106;-68
2022/11/29 03:00:22;;;;;;;45.45;23.38;;;3.00;99.90;;;;;;5051934;28;20116;-69
2022/11/29 03:03:11;;;;;;;47.38;24.02;;;2.90;99.90;;;;;;5051413;28;20312;-69
2022/11/29 03:05:52;;;;;;;46.80;23.30;;;2.90;99.90;;;;;;5051402;28;20554;-68
2022/11/29 03:08:45;;;;;;;46.97;23.63;;;2.90;99.90;;;;;;5051700;28;20519;-69
2022/11/29 03:11:37;;;;;;;52.90;23.85;;;2.90;99.90;;;;;;5051293;28;20405;-68
2022/11/29 03:14:26;;;;;;;46.03;22.50;;;2.90;99.90;;;;;;5032256;28;20029;-68
2022/11/29 03:17:09;;;;;;;41.67;21.80;;;2.90;99.90;;;;;;5031764;28;20029;-69
2022/11/29 03:20:03;;;;;;;43.05;23.52;;;2.90;99.90;;;;;;5031525;28;20040;-69
2022/11/29 03:22:49;;;;;;;45.05;22.98;;;2.90;99.90;;;;;;5031536;28;20029;-69
2022/11/29 03:25:27;;;;;;;45.00;22.10;;;2.90;99.90;;;;;;5024486;28;20057;-69
2022/11/29 03:28:09;;;;;;;41.60;21.58;;;2.90;99.90;;;;;;5031624;28;20029;-69
2022/11/29 03:30:37;;;;;;;46.67;21.65;;;2.90;99.90;;;;;;5031280;28;20063;-69
2022/11/29 03:33:15;;;;;;;39.83;21.15;;;2.90;99.90;;;;;;5031949;28;20036;-69
2022/11/29 03:36:03;;;;;;;40.33;21.65;;;2.90;99.90;;;;;;5030914;28;20092;-69
2022/11/29 03:38:37;;;;;;;40.25;20.38;;;2.90;99.90;;;;;;5031636;28;20184;-72
2022/11/29 03:41:08;;;;;;;42.75;21.70;;;3.00;99.90;;;;;;5032044;28;20084;-69
2022/11/29 03:44:05;;;;;;;40.95;21.90;;;3.00;99.90;;;;;;5031318;28;20025;-69
2022/11/29 03:46:46;;;;;;;45.10;22.33;;;3.00;99.90;;;;;;5031308;28;20033;-69
2022/11/29 03:49:33;;;;;;;44.75;23.58;;;3.00;99.90;;;;;;5031768;28;20029;-69
2022/11/29 03:52:22;;;;;;;42.72;22.40;;;3.00;99.90;;;;;;5031749;28;20034;-69
2022/11/29 03:55:09;;;;;;;48.53;24.20;;;3.10;99.90;;;;;;5031166;28;20191;-69
2022/11/29 03:57:52;;;;;;;47.72;23.10;;;3.10;99.90;;;;;;5030923;28;20087;-69
2022/11/29 04:00:19;;;;;;;45.65;22.75;;;3.10;99.90;;;;;;5031434;28;20025;-69
2022/11/29 04:03:21;;;;;;;46.42;22.05;;;3.10;99.90;;;;;;5031142;28;20029;-69
2022/11/29 04:05:50;;;;;;;41.83;22.17;;;3.10;99.90;;;;;;5030993;28;20030;-69
2022/11/29 04:08:40;;;;;;;46.97;22.73;;;3.10;99.90;;;;;;5031726;28;20030;-69
2022/11/29 04:11:27;;;;;;;43.58;22.38;;;3.10;99.90;;;;;;5031651;28;20095;-69
2022/11/29 04:14:03;;;;;;;47.13;23.15;;;3.10;99.90;;;;;;5031032;28;20057;-68
2022/11/29 04:16:52;;;;;;;44.03;22.45;;;3.10;99.90;;;;;;5035893;28;20029;-69
2022/11/29 04:19:32;;;;;;;44.20;23.13;;;3.10;99.90;;;;;;5051126;28;20440;-68
2022/11/29 04:22:16;;;;;;;49.40;22.88;;;3.10;99.90;;;;;;5054155;28;20033;-69
2022/11/29 04:25:06;;;;;;;44.20;22.25;;;3.10;99.90;;;;;;5054585;28;20327;-69
2022/11/29 04:27:50;;;;;;;45.88;22.83;;;3.10;99.90;;;;;;5054818;28;20108;-71
2022/11/29 04:30:21;;;;;;;43.17;21.80;;;3.10;99.90;;;;;;5055081;28;20032;-69
2022/11/29 04:32:58;;;;;;;47.90;23.10;;;3.10;99.90;;;;;;5054363;28;20037;-69
2022/11/29 04:35:43;;;;;;;45.53;23.27;;;3.10;99.90;;;;;;5054782;28;20045;-69
2022/11/29 04:38:28;;;;;;;44.80;23.85;;;3.10;99.90;;;;;;5054829;28;20021;-69
2022/11/29 04:41:24;;;;;;;49.05;24.13;;;3.10;99.90;;;;;;5054116;28;20021;-70
2022/11/29 04:44:15;;;;;;;43.53;23.33;;;3.20;99.90;;;;;;5054070;28;20032;-69
2022/11/29 04:46:52;;;;;;;43.17;23.35;;;3.20;99.90;;;;;;5054711;28;20017;-68
2022/11/29 04:49:20;;;;;;;49.78;24.45;;;3.20;99.90;;;;;;5054571;28;20112;-68
2022/11/29 04:52:20;;;;;;;48.25;24.42;;;3.20;99.90;;;;;;5052801;28;20117;-69
2022/11/29 04:55:03;;;;;;;50.08;24.85;;;3.20;99.90;;;;;;5053904;28;20469;-69
2022/11/29 04:57:36;;;;;;;48.67;25.05;;;3.20;99.90;;;;;;5054284;28;20020;-69
2022/11/29 05:00:14;;;;;;;52.35;25.02;;;3.20;99.90;;;;;;5054164;28;20037;-68
2022/11/29 05:02:59;;;;;;;55.25;26.33;;;3.20;99.90;;;;;;5054115;28;20040;-69
2022/11/29 05:06:06;;;;;;;48.97;24.95;;;3.20;99.90;;;;;;5057375;28;20029;-68
2022/11/29 05:08:49;;;;;;;50.75;26.02;;;3.20;99.90;;;;;;5033890;28;20396;-68
2022/11/29 05:11:24;;;;;;;55.70;27.27;;;3.20;99.90;;;;;;5034209;28;20029;-69
2022/11/29 05:13:57;;;;;;;57.67;28.98;;;3.10;99.90;;;;;;5033729;28;20155;-68
2022/11/29 05:16:39;;;;;;;60.72;26.67;;;3.10;99.90;;;;;;5043644;28;20094;-69
2022/11/29 05:19:29;;;;;;;53.28;26.90;;;3.10;99.90;;;;;;5052701;28;20033;-69
2022/11/29 05:22:21;;;;;;;58.85;28.75;;;3.10;99.90;;;;;;5052999;28;20831;-69
2022/11/29 05:25:12;;;;;;;57.97;30.55;;;3.20;99.90;;;;;;5053287;28;20025;-69
2022/11/29 05:27:50;;;;;;;59.33;30.25;;;3.20;99.90;;;;;;5052202;28;20041;-72
2022/11/29 05:30:20;;;;;;;55.92;29.42;;;3.20;99.90;;;;;;5054171;28;20373;-69
2022/11/29 05:33:13;;;;;;;57.45;31.08;;;3.20;99.90;;;;;;5052263;28;20032;-69
2022/11/29 05:35:45;;;;;;;60.75;29.80;;;3.10;99.90;;;;;;5064148;28;20053;-71
2022/11/29 05:38:13;;;;;;;66.40;31.48;;;3.10;99.90;;;;;;5053786;28;20070;-68
2022/11/29 05:41:02;;;;;;;59.75;31.10;;;3.10;99.90;;;;;;5051689;28;20025;-68
2022/11/29 05:44:03;;;;;;;62.53;30.75;;;3.10;99.90;;;;;;5053611;28;20081;-68
2022/11/29 05:46:35;;;;;;;62.42;30.52;;;3.20;99.90;;;;;;5053277;28;20024;-69
2022/11/29 05:49:15;;;;;;;60.53;32.40;;;3.20;99.90;;;;;;5052892;28;20035;-68
2022/11/29 05:52:17;;;;;;;57.15;30.00;;;3.20;99.90;;;;;;5052824;28;20033;-69
2022/11/29 05:54:55;;;;;;;56.55;29.92;;;3.20;99.90;;;;;;5052988;28;20045;-69
2022/11/29 05:57:59;;;;;;;60.95;30.33;;;3.20;99.90;;;;;;5053346;28;20111;-68
2022/11/29 06:00:31;;;;;;;63.38;30.90;;;3.20;99.90;;;;;;5051819;28;20032;-69
2022/11/29 06:03:45;;;;;;;64.00;32.00;;;3.10;99.90;;;;;;5052506;28;20029;-69
2022/11/29 06:06:26;;;;;;;58.55;29.80;;;3.10;99.90;;;;;;5033218;28;20091;-69
2022/11/29 06:09:30;;;;;;;63.30;31.98;;;3.10;99.90;;;;;;5052419;28;20072;-69
2022/11/29 06:12:05;;;;;;;64.07;30.80;;;3.10;99.90;;;;;;5052218;28;20025;-69
2022/11/29 06:14:46;;;;;;;64.40;31.13;;;3.10;99.90;;;;;;5052855;28;20021;-68
2022/11/29 06:17:38;;;;;;;58.65;29.10;;;3.10;99.90;;;;;;5052753;28;20043;-68
2022/11/29 06:20:45;;;;;;;56.53;29.73;;;3.10;99.90;;;;;;5052028;28;20028;-68
2022/11/29 06:23:23;;;;;;;69.43;31.20;;;3.00;99.90;;;;;;5049530;28;20045;-68
2022/11/29 06:26:18;;;;;;;62.75;32.28;;;3.10;99.90;;;;;;5052538;28;20029;-68
2022/11/29 06:29:18;;;;;;;67.55;33.22;;;3.00;99.90;;;;;;5052572;28;20031;-68
2022/11/29 06:31:49;;;;;;;64.65;30.75;;;3.10;99.90;;;;;;5052541;28;20029;-68
2022/11/29 06:34:28;;;;;;;61.60;30.77;;;3.10;99.90;;;;;;5053094;28;20136;-68
2022/11/29 06:37:01;;;;;;;57.05;29.35;;;3.10;99.90;;;;;;5052526;28;20041;-68
2022/11/29 06:39:27;;;;;;;59.53;29.30;;;3.10;99.90;;;;;;5052898;28;20041;-67
2022/11/29 06:41:53;;;;;;;60.08;30.02;;;3.10;99.90;;;;;;5052286;28;20036;-67
2022/11/29 06:44:18;;;;;;;63.67;31.98;;;3.10;99.90;;;;;;5052505;28;20025;-69
2022/11/29 06:46:55;;;;;;;63.33;30.45;;;3.10;99.90;;;;;;5052280;28;20037;-68
2022/11/29 06:49:35;;;;;;;60.25;30.92;;;3.20;99.90;;;;;;5052337;28;20040;-68
2022/11/29 06:52:29;;;;;;;54.47;30.27;;;3.20;99.90;;;;;;5052124;28;20603;-69
2022/11/29 06:55:18;;;;;;;61.22;30.05;;;3.20;99.90;;;;;;5052059;28;20112;-68
2022/11/29 06:58:19;;;;;;;56.17;31.08;;;3.20;99.90;;;;;;5052019;28;20035;-69
2022/11/29 07:01:17;;;;;;;60.80;31.58;;;3.20;99.90;;;;;;5042854;28;20060;-68
2022/11/29 07:03:58;;;;;;;56.38;30.10;;;3.30;99.90;;;;;;5052109;28;20043;-73
2022/11/29 07:06:26;;;;;;;65.15;30.83;;;3.30;99.90;;;;;;5052207;28;20028;-68
2022/11/29 07:09:24;;;;;;;62.72;31.63;;;3.30;99.90;;;;;;5051806;28;20036;-69
2022/11/29 07:11:50;;;;;;;60.97;30.25;;;3.30;99.90;;;;;;5052299;28;20021;-69
2022/11/29 07:14:16;;;;;;;58.95;30.00;;;3.30;99.90;;;;;;5051519;28;20112;-69
2022/11/29 07:16:55;;;;;;;56.70;30.27;;;3.30;99.90;;;;;;5051971;28;20143;-67
2022/11/29 07:19:44;;;;;;;59.03;31.02;;;3.40;99.90;;;;;;5051888;28;20021;-68
2022/11/29 07:22:25;;;;;;;58.17;31.33;;;3.40;99.90;;;;;;5052185;28;20021;-69
2022/11/29 07:25:02;;;;;;;55.42;30.52;;;3.40;99.90;;;;;;5051952;28;20021;-68
2022/11/29 07:27:40;;;;;;;54.40;29.40;;;3.40;99.90;;;;;;5052481;28;20036;-68
2022/11/29 07:30:09;;;;;;;62.13;31.60;;;3.50;99.90;;;;;;5050277;28;20025;-68
2022/11/29 07:32:54;;;;;;;56.58;30.52;;;3.50;99.90;;;;;;5052068;28;20032;-68
2022/11/29 07:35:19;;;;;;;50.67;27.77;;;3.50;99.90;;;;;;5051808;28;20438;-68
2022/11/29 07:38:06;;;;;;;54.40;28.95;;;3.60;99.90;;;;;;5051693;28;20040;-71
2022/11/29 07:40:38;;;;;;;54.17;29.58;;;3.50;99.90;;;;;;5052024;28;20423;-68
2022/11/29 07:43:21;;;;;;;53.08;29.13;;;3.50;99.90;;;;;;5051609;28;20029;-68
2022/11/29 07:45:47;;;;;;;52.33;27.77;;;3.50;99.90;;;;;;5051442;28;20026;-71
2022/11/29 07:48:15;;;;;;;54.20;29.88;;;3.50;99.90;;;;;;5052002;28;20041;-67
2022/11/29 07:50:42;;;;;;;54.80;29.55;;;3.60;99.90;;;;;;5051545;28;20040;-68
2022/11/29 07:53:15;;;;;;;51.38;28.60;;;3.60;99.90;;;;;;5051417;28;20036;-69
2022/11/29 07:55:41;;;;;;;56.08;28.85;;;3.60;99.90;;;;;;5052704;28;20071;-68
2022/11/29 07:58:13;;;;;;;50.85;30.13;;;3.70;99.90;;;;;;5055372;28;20021;-68
2022/11/29 08:00:40;;;;;;;53.03;29.75;;;3.70;99.90;;;;;;5055335;28;20469;-68
2022/11/29 08:03:07;;;;;;;52.67;28.73;;;3.70;99.90;;;;;;5055344;28;20099;-68
2022/11/29 08:05:33;;;;;;;54.38;28.48;;;3.70;99.90;;;;;;5054543;28;20044;-68
2022/11/29 08:07:59;;;;;;;55.80;28.77;;;3.70;99.90;;;;;;5055107;28;20029;-68
2022/11/29 08:10:25;;;;;;;54.38;28.25;;;3.70;99.90;;;;;;5055511;28;20029;-67
2022/11/29 08:12:51;;;;;;;50.45;27.05;;;3.70;99.90;;;;;;5054981;28;20029;-68
2022/11/29 08:15:19;;;;;;;49.03;26.30;;;3.80;99.90;;;;;;5055415;28;20405;-68
2022/11/29 08:17:45;;;;;;;48.80;26.95;;;3.70;99.90;;;;;;5055452;28;20155;-68
2022/11/29 08:20:12;;;;;;;48.58;26.05;;;3.70;99.90;;;;;;5054930;28;20025;-68
2022/11/29 08:22:38;;;;;;;48.25;26.67;;;3.70;99.90;;;;;;5054061;28;20025;-68
2022/11/29 08:25:06;;;;;;;46.53;27.48;;;3.70;99.90;;;;;;5054646;28;20496;-68
2022/11/29 08:27:32;;;;;;;43.28;26.17;;;3.80;99.90;;;;;;5055624;28;20433;-69
2022/11/29 08:29:58;;;;;;;49.92;26.35;;;3.80;99.90;;;;;;5054671;28;20441;-69
2022/11/29 08:32:25;;;;;;;47.63;26.73;;;3.80;99.90;;;;;;5055262;28;20061;-68
2022/11/29 08:34:50;;;;;;;45.65;25.95;;;3.80;99.90;;;;;;5054613;28;20041;-69
2022/11/29 08:37:16;;;;;;;48.92;27.02;;;3.80;99.90;;;;;;5055209;28;20025;-69
2022/11/29 08:39:42;;;;;;;48.28;25.67;;;3.80;99.90;;;;;;5054783;28;20029;-69
2022/11/29 08:42:07;;;;;;;47.30;25.98;;;3.80;99.90;;;;;;5054415;28;20025;-69
2022/11/29 08:44:33;;;;;;;48.22;25.17;;;3.80;99.90;;;;;;5054890;28;20037;-68
2022/11/29 08:50:00;;;;;;;41.95;23.70;;;3.80;99.90;;;;;;5054613;28;20087;-67
2022/11/29 08:55:16;;;;;;;41.50;24.40;;;3.90;99.90;;;;;;5055174;28;20492;-68
2022/11/29 08:57:42;;;;;;;41.70;24.23;;;3.90;99.90;;;;;;5054446;28;20108;-69
2022/11/29 09:00:08;;;;;;;42.03;24.60;;;3.80;99.90;;;;;;5054395;28;20108;-68
2022/11/29 09:02:35;;;;;;;45.35;25.83;;;3.80;99.90;;;;;;5054890;28;20029;-68
2022/11/29 09:05:01;;;;;;;41.95;24.08;;;3.80;99.90;;;;;;5054364;28;20453;-69
2022/11/29 09:07:27;;;;;;;39.60;24.75;;;3.80;99.90;;;;;;5054511;28;20025;-68
2022/11/29 09:09:53;;;;;;;39.90;22.00;;;3.80;99.90;;;;;;5054347;28;20481;-73
2022/11/29 09:12:18;;;;;;;41.97;22.20;;;3.80;99.90;;;;;;5054612;28;20017;-68
2022/11/29 09:14:44;;;;;;;43.63;23.92;;;3.80;99.90;;;;;;5054244;28;20096;-68
2022/11/29 09:17:10;;;;;;;44.95;24.80;;;3.90;99.90;;;;;;5054076;28;20458;-68
2022/11/29 09:19:35;;;;;;;41.67;24.60;;;3.90;99.90;;;;;;5054187;28;20033;-68
2022/11/29 09:22:02;;;;;;;48.80;26.60;;;3.80;99.90;;;;;;5054262;28;20029;-68
2022/11/29 09:24:28;;;;;;;39.67;22.52;;;3.80;99.90;;;;;;5054345;28;20387;-68
2022/11/29 09:26:53;;;;;;;43.03;24.80;;;3.80;99.90;;;;;;5053959;28;20021;-70
2022/11/29 09:29:19;;;;;;;42.97;23.55;;;3.80;99.90;;;;;;5053296;28;20103;-69
2022/11/29 09:31:44;;;;;;;44.97;24.27;;;3.80;99.90;;;;;;5054016;28;20025;-68
2022/11/29 09:34:15;;;;;;;41.72;24.05;;;3.80;99.90;;;;;;5053864;28;20159;-67
2022/11/29 09:36:42;;;;;;;39.23;23.23;;;3.90;99.90;;;;;;5053885;28;20516;-69
2022/11/29 09:39:11;;;;;;;41.40;23.13;;;3.90;99.90;;;;;;5053338;28;20375;-68
2022/11/29 09:42:01;;;;;;;37.05;22.02;;;4.00;99.90;;;;;;5053900;28;20095;-68
2022/11/29 09:44:38;;;;;;;40.55;22.55;;;4.00;99.90;;;;;;5053879;28;20033;-69
2022/11/29 09:47:30;;;;;;;37.15;21.52;;;4.10;99.90;;;;;;5053483;28;20029;-69
2022/11/29 09:50:15;;;;;;;40.17;22.63;;;4.10;99.90;;;;;;5053441;28;20079;-69
2022/11/29 09:53:19;;;;;;;38.22;21.83;;;4.20;99.90;;;;;;5053657;28;20029;-69
2022/11/29 09:55:54;;;;;;;40.35;21.83;;;4.20;99.90;;;;;;5053692;28;20028;-68
2022/11/29 09:58:25;;;;;;;44.10;22.45;;;4.30;99.90;;;;;;5053457;28;20481;-68
2022/11/29 10:00:59;;;;;;;39.67;23.13;;;4.40;99.90;;;;;;5053178;28;20500;-68
2022/11/29 10:03:37;;;;;;;37.80;21.05;;;4.40;99.90;;;;;;5053612;28;20481;-69
2022/11/29 10:06:24;;;;;;;39.95;21.98;;;4.40;99.90;;;;;;5053183;28;20105;-68
2022/11/29 10:09:10;;;;;;;37.22;20.30;;;4.40;99.90;;;;;;5053372;28;20117;-68
2022/11/29 10:11:40;;;;;;;38.05;23.60;;;4.40;99.90;;;;;;5053135;28;20104;-67
2022/11/29 10:14:17;;;;;;;37.28;22.00;;;4.40;99.90;;;;;;5052895;28;20028;-67
2022/11/29 10:17:03;;;;;;;36.58;21.55;;;4.40;99.90;;;;;;5053417;28;20033;-68
2022/11/29 10:19:35;;;;;;;34.63;21.48;;;4.40;99.90;;;;;;5048245;28;20099;-68
2022/11/29 10:22:35;;;;;;;40.63;22.77;;;4.40;99.90;;;;;;5052720;28;20029;-68
2022/11/29 10:25:02;;;;;;;37.95;22.75;;;4.50;99.90;;;;;;5052640;28;20036;-68
2022/11/29 10:27:29;;;;;;;43.67;23.38;;;4.50;99.90;;;;;;5053078;28;20108;-68
2022/11/29 10:29:59;;;;;;;38.42;23.25;;;4.50;99.90;;;;;;5052874;28;20040;-68
2022/11/29 10:32:30;;;;;;;40.03;23.00;;;4.40;99.90;;;;;;5053101;28;20033;-68
2022/11/29 10:34:57;;;;;;;38.53;21.98;;;4.40;99.90;;;;;;5052859;28;20033;-68
2022/11/29 10:37:24;;;;;;;41.08;21.88;;;4.40;99.90;;;;;;5053072;28;20035;-68
2022/11/29 10:39:57;;;;;;;33.00;22.10;;;4.50;99.90;;;;;;5051352;28;20131;-68
2022/11/29 10:45:19;;;;;;;37.92;21.63;;;4.50;99.90;;;;;;5052035;28;20384;-68
2022/11/29 10:47:47;;;;;;;37.42;21.50;;;4.60;99.90;;;;;;5052736;28;20369;-68
2022/11/29 10:50:20;;;;;;;33.28;19.73;;;4.50;99.90;;;;;;5050907;28;20099;-68
2022/11/29 10:52:45;;;;;;;35.63;22.02;;;4.50;99.90;;;;;;5052646;28;20055;-68
2022/11/29 10:55:13;;;;;;;37.03;22.05;;;4.50;99.90;;;;;;5050565;28;20502;-69
2022/11/29 10:58:10;;;;;;;35.83;20.77;;;4.60;99.90;;;;;;5052563;28;20079;-69
2022/11/29 11:01:05;;;;;;;33.65;20.75;;;4.60;99.90;;;;;;5052281;28;20029;-69
2022/11/29 11:03:36;;;;;;;37.13;21.73;;;4.60;99.90;;;;;;5052436;28;20418;-69
2022/11/29 11:06:10;;;;;;;33.47;20.52;;;4.60;99.90;;;;;;5052066;28;20029;-69
2022/11/29 11:08:39;;;;;;;35.47;20.98;;;4.60;99.90;;;;;;5052635;28;20071;-69
2022/11/29 11:11:06;;;;;;;34.92;20.58;;;4.60;99.90;;;;;;5051987;28;20052;-69
2022/11/29 11:13:33;;;;;;;36.60;21.48;;;4.50;99.90;;;;;;5051791;28;20037;-68
2022/11/29 11:16:28;;;;;;;35.67;22.48;;;4.60;99.90;;;;;;5052293;28;20025;-68
2022/11/29 11:18:54;;;;;;;35.80;21.38;;;4.50;99.90;;;;;;5043143;28;20036;-69
2022/11/29 11:21:22;;;;;;;34.83;20.88;;;4.50;99.90;;;;;;5051837;28;20400;-68
2022/11/29 11:23:55;;;;;;;35.45;21.23;;;4.50;99.90;;;;;;5052179;28;20021;-68
2022/11/29 11:26:21;;;;;;;41.47;23.20;;;4.50;99.90;;;;;;5051796;28;20370;-68
2022/11/29 11:28:54;;;;;;;35.35;21.15;;;4.50;99.90;;;;;;5052150;28;20029;-68
2022/11/29 11:31:33;;;;;;;31.75;20.25;;;4.50;99.90;;;;;;5053471;28;20396;-68
2022/11/29 11:34:21;;;;;;;36.40;20.35;;;4.50;99.90;;;;;;5056186;28;20025;-69
2022/11/29 11:36:47;;;;;;;41.22;22.05;;;4.50;99.90;;;;;;5055804;28;20072;-68
2022/11/29 11:39:20;;;;;;;36.55;21.25;;;4.50;99.90;;;;;;5055593;28;20157;-68
2022/11/29 11:44:37;;;;;;;38.30;20.85;;;4.60;99.90;;;;;;5054860;28;20063;-67
2022/11/29 11:47:05;;;;;;;36.15;21.20;;;4.70;99.90;;;;;;5055983;28;20028;-72
2022/11/29 11:49:47;;;;;;;35.72;21.58;;;4.70;99.90;;;;;;5055765;28;20060;-68
2022/11/29 11:52:19;;;;;;;37.53;21.55;;;4.70;99.90;;;;;;5055513;28;20035;-68
2022/11/29 11:54:51;;;;;;;37.45;21.17;;;4.70;99.90;;;;;;5056084;28;20025;-68
2022/11/29 11:57:18;;;;;;;33.88;21.13;;;4.80;99.90;;;;;;5055583;28;20021;-67
2022/11/29 11:59:48;;;;;;;36.85;21.90;;;4.80;99.90;;;;;;5055680;28;20060;-68
2022/11/29 12:02:38;;;;;;;38.45;21.70;;;4.80;99.90;;;;;;5055515;28;20021;-68
2022/11/29 12:05:10;;;;;;;35.47;21.55;;;4.80;99.90;;;;;;5054630;28;20029;-68
2022/11/29 12:07:57;;;;;;;38.60;21.85;;;4.90;99.90;;;;;;5056083;28;20025;-68
2022/11/29 12:10:27;;;;;;;35.15;21.23;;;4.90;99.90;;;;;;5055020;28;20451;-68
2022/11/29 12:12:54;;;;;;;33.97;20.17;;;5.00;99.90;;;;;;5055595;28;20116;-69
2022/11/29 12:15:34;;;;;;;36.75;21.40;;;5.00;99.90;;;;;;5055127;28;20089;-68
2022/11/29 12:18:42;;;;;;;37.17;21.88;;;5.10;99.90;;;;;;5055652;28;20017;-68
2022/11/29 12:21:16;;;;;;;32.85;20.92;;;5.20;99.90;;;;;;5049069;28;20516;-69
2022/11/29 12:23:54;;;;;;;31.20;19.70;;;5.10;99.90;;;;;;5055470;28;20028;-68
2022/11/29 12:26:24;;;;;;;35.65;21.25;;;5.20;99.90;;;;;;5054751;28;20466;-68
2022/11/29 12:28:50;;;;;;;34.33;20.98;;;5.20;99.90;;;;;;5055481;28;20056;-69
2022/11/29 12:31:21;;;;;;;36.28;20.77;;;5.20;99.90;;;;;;5054945;28;20422;-69
2022/11/29 12:34:10;;;;;;;35.03;20.58;;;5.20;99.90;;;;;;5055523;28;20416;-67
2022/11/29 12:36:45;;;;;;;34.67;20.25;;;5.30;99.90;;;;;;5054688;28;20041;-68
2022/11/29 12:39:51;;;;;;;30.70;20.02;;;5.30;99.90;;;;;;5054775;28;20458;-69
2022/11/29 12:42:40;;;;;;;32.30;19.52;;;5.30;99.90;;;;;;5054073;28;20425;-69
2022/11/29 12:45:18;;;;;;;34.58;20.25;;;5.40;99.90;;;;;;5054882;28;20017;-68
2022/11/29 12:48:09;;;;;;;29.23;18.30;;;5.40;99.90;;;;;;5053786;28;20028;-68
2022/11/29 12:50:48;;;;;;;30.10;19.63;;;5.40;99.90;;;;;;5054696;28;20094;-68
2022/11/29 12:53:39;;;;;;;33.53;18.17;;;5.40;99.90;;;;;;5054443;28;20163;-68
2022/11/29 12:56:23;;;;;;;27.58;17.25;;;5.40;99.90;;;;;;5054984;28;20036;-68
2022/11/29 12:58:55;;;;;;;26.65;16.38;;;5.50;99.90;;;;;;5054537;28;20443;-69
2022/11/29 13:01:39;;;;;;;32.97;18.35;;;5.40;99.90;;;;;;5054359;28;20068;-67
2022/11/29 13:04:35;;;;;;;27.75;17.45;;;5.40;99.90;;;;;;5054831;28;20569;-68
2022/11/29 13:07:26;;;;;;;26.00;16.20;;;5.50;99.90;;;;;;5054421;28;20032;-69
2022/11/29 13:10:07;;;;;;;31.63;18.02;;;5.50;99.90;;;;;;5054845;28;20039;-69
2022/11/29 13:12:41;;;;;;;29.17;18.63;;;5.40;99.90;;;;;;5054010;28;20103;-69
2022/11/29 13:15:17;;;;;;;27.55;17.35;;;5.40;99.90;;;;;;5054639;28;20138;-68
2022/11/29 13:17:43;;;;;;;29.15;18.10;;;5.30;99.90;;;;;;5054305;28;20025;-68
2022/11/29 13:20:37;;;;;;;34.60;19.77;;;5.30;99.90;;;;;;5055003;28;20484;-69
2022/11/29 13:23:13;;;;;;;31.83;18.67;;;5.30;99.90;;;;;;5055620;28;20033;-69
2022/11/29 13:25:44;;;;;;;30.02;18.35;;;5.30;99.90;;;;;;5054887;28;20109;-69
2022/11/29 13:28:22;;;;;;;37.83;19.15;;;5.30;99.90;;;;;;5054560;28;20051;-73
2022/11/29 13:30:48;;;;;;;28.88;18.35;;;5.30;99.90;;;;;;5054519;28;20033;-67
2022/11/29 13:33:44;;;;;;;32.88;18.00;;;5.30;99.90;;;;;;5053637;28;20485;-68
2022/11/29 13:36:18;;;;;;;30.90;18.10;;;5.20;99.90;;;;;;5052617;28;20405;-67